sensor_id;sensor_type;location;lat;lon;timestamp;pressure;altitude;pressure_sealevel;temperature;humidity
22930;BME280;11630;42.660;23.292;2024-01-25T00:02:10;68026.52;;;4.43;100.00
22930;BME280;11630;42.660;23.292;2024-01-25T00:04:41;68019.98;;;4.32;100.00
22930;BME280;11630;42.660;23.292;2024-01-25T00:07:11;68013.24;;;4.27;100.00
22930;BME280;11630;42.660;23.292;2024-01-25T00:09:41;68028.38;;;4.41;100.00
22930;BME280;11630;42.660;23.292;2024-01-25T00:12:12;68040.58;;;4.55;100.00
22930;BME280;11630;42.660;23.292;2024-01-25T00:14:43;68055.71;;;4.67;100.00
22930;BME280;11630;42.660;23.292;2024-01-25T00:17:13;68066.02;;;4.79;100.00
22930;BME280;11630;42.660;23.292;2024-01-25T00:19:44;68058.16;;;4.70;100.00
22930;BME280;11630;42.660;23.292;2024-01-25T00:22:14;68038.38;;;4.49;100.00
22930;BME280;11630;42.660;23.292;2024-01-25T00:24:47;68019.79;;;4.40;100.00
22930;BME280;11630;42.660;23.292;2024-01-25T00:27:18;68035.17;;;4.51;100.00
22930;BME280;11630;42.660;23.292;2024-01-25T00:29:48;68017.30;;;4.32;100.00
22930;BME280;11630;42.660;23.292;2024-01-25T00:32:19;68008.94;;;4.25;100.00
22930;BME280;11630;42.660;23.292;2024-01-25T00:34:49;68024.08;;;4.39;100.00
22930;BME280;11630;42.660;23.292;2024-01-25T00:37:20;68039.23;;;4.55;100.00
22930;BME280;11630;42.660;23.292;2024-01-25T00:39:53;68050.06;;;4.65;100.00
22930;BME280;11630;42.660;23.292;2024-01-25T00:42:24;68052.23;;;4.67;100.00
22930;BME280;11630;42.660;23.292;2024-01-25T00:44:55;68032.16;;;4.42;100.00
22930;BME280;11630;42.660;23.292;2024-01-25T00:47:26;68044.66;;;4.60;100.00
22930;BME280;11630;42.660;23.292;2024-01-25T00:49:57;68009.23;;;4.29;100.00
22930;BME280;11630;42.660;23.292;2024-01-25T00:52:27;68035.42;;;4.47;100.00
22930;BME280;11630;42.660;23.292;2024-01-25T00:54:58;68033.23;;;4.43;100.00
22930;BME280;11630;42.660;23.292;2024-01-25T00:57:29;68021.13;;;4.38;100.00
22930;BME280;11630;42.660;23.292;2024-01-25T00:59:59;68007.88;;;4.27;100.00
22930;BME280;11630;42.660;23.292;2024-01-25T01:02:34;68001.11;;;4.19;100.00
22930;BME280;11630;42.660;23.292;2024-01-25T01:05:03;68012.98;;;4.28;100.00
22930;BME280;11630;42.660;23.292;2024-01-25T01:07:34;68008.39;;;4.25;100.00
22930;BME280;11630;42.660;23.292;2024-01-25T01:10:06;68038.38;;;4.49;100.00
22930;BME280;11630;42.660;23.292;2024-01-25T01:12:37;68030.58;;;4.48;100.00
22930;BME280;11630;42.660;23.292;2024-01-25T01:15:09;68034.63;;;4.50;100.00
22930;BME280;11630;42.660;23.292;2024-01-25T01:17:39;68029.20;;;4.43;100.00
22930;BME280;11630;42.660;23.292;2024-01-25T01:20:10;68025.18;;;4.43;100.00
22930;BME280;11630;42.660;23.292;2024-01-25T01:22:41;68045.17;;;4.58;100.00
22930;BME280;11630;42.660;23.292;2024-01-25T01:25:12;68080.34;;;4.91;100.00
22930;BME280;11630;42.660;23.292;2024-01-25T01:27:43;68052.23;;;4.67;100.00
22930;BME280;11630;42.660;23.292;2024-01-25T01:30:13;68049.23;;;4.63;100.00
22930;BME280;11630;42.660;23.292;2024-01-25T01:32:44;68051.66;;;4.64;100.00
22930;BME280;11630;42.660;23.292;2024-01-25T01:35:14;68045.72;;;4.61;100.00
22930;BME280;11630;42.660;23.292;2024-01-25T01:37:44;68039.53;;;4.57;100.00
22930;BME280;11630;42.660;23.292;2024-01-25T01:40:15;68051.13;;;4.64;100.00
22930;BME280;11630;42.660;23.292;2024-01-25T01:42:46;68059.76;;;4.69;100.00
22930;BME280;11630;42.660;23.292;2024-01-25T01:45:17;68044.35;;;4.56;100.00
22930;BME280;11630;42.660;23.292;2024-01-25T01:47:48;68048.16;;;4.62;100.00
22930;BME280;11630;42.660;23.292;2024-01-25T01:50:19;68078.48;;;4.93;100.00
22930;BME280;11630;42.660;23.292;2024-01-25T01:52:51;68123.61;;;5.28;100.00
22930;BME280;11630;42.660;23.292;2024-01-25T01:55:24;68169.38;;;5.69;100.00
22930;BME280;11630;42.660;23.292;2024-01-25T01:57:55;68251.77;;;6.49;100.00
22930;BME280;11630;42.660;23.292;2024-01-25T02:00:26;68355.58;;;7.41;100.00
22930;BME280;11630;42.660;23.292;2024-01-25T02:02:57;68405.77;;;7.90;100.00
22930;BME280;11630;42.660;23.292;2024-01-25T02:05:27;68429.64;;;8.10;100.00
22930;BME280;11630;42.660;23.292;2024-01-25T02:07:58;68447.03;;;8.26;99.20
22930;BME280;11630;42.660;23.292;2024-01-25T02:10:29;68463.30;;;8.38;97.97
22930;BME280;11630;42.660;23.292;2024-01-25T02:13:00;68472.81;;;8.50;97.64
22930;BME280;11630;42.660;23.292;2024-01-25T02:15:30;68473.91;;;8.54;97.45
22930;BME280;11630;42.660;23.292;2024-01-25T02:18:01;68476.09;;;8.56;97.49
22930;BME280;11630;42.660;23.292;2024-01-25T02:20:32;68470.92;;;8.50;98.29
22930;BME280;11630;42.660;23.292;2024-01-25T02:23:03;68476.08;;;8.51;97.22
22930;BME280;11630;42.660;23.292;2024-01-25T02:25:33;68483.13;;;8.60;97.51
22930;BME280;11630;42.660;23.292;2024-01-25T02:28:05;68477.17;;;8.57;97.44
22930;BME280;11630;42.660;23.292;2024-01-25T02:30:36;68462.23;;;8.40;98.06
22930;BME280;11630;42.660;23.292;2024-01-25T02:33:07;68460.88;;;8.40;98.41
22930;BME280;11630;42.660;23.292;2024-01-25T02:35:38;68478.49;;;8.52;98.50
22930;BME280;11630;42.660;23.292;2024-01-25T02:38:09;68445.65;;;8.21;97.06
22930;BME280;11630;42.660;23.292;2024-01-25T02:40:40;68387.05;;;7.74;98.86
22930;BME280;11630;42.660;23.292;2024-01-25T02:43:11;68395.72;;;7.77;99.47
22930;BME280;11630;42.660;23.292;2024-01-25T02:45:41;68417.96;;;8.00;98.43
22930;BME280;11630;42.660;23.292;2024-01-25T02:48:12;68384.34;;;7.69;99.91
22930;BME280;11630;42.660;23.292;2024-01-25T02:50:44;68356.95;;;7.46;100.00
22930;BME280;11630;42.660;23.292;2024-01-25T02:53:15;68369.15;;;7.56;100.00
22930;BME280;11630;42.660;23.292;2024-01-25T02:55:45;68372.95;;;7.59;100.00
22930;BME280;11630;42.660;23.292;2024-01-25T02:58:16;68341.76;;;7.32;100.00
22930;BME280;11630;42.660;23.292;2024-01-25T03:00:47;68334.69;;;7.23;100.00
22930;BME280;11630;42.660;23.292;2024-01-25T03:03:18;68349.88;;;7.37;100.00
22930;BME280;11630;42.660;23.292;2024-01-25T03:05:52;68374.56;;;7.58;100.00
22930;BME280;11630;42.660;23.292;2024-01-25T03:08:24;68366.41;;;7.51;100.00
22930;BME280;11630;42.660;23.292;2024-01-25T03:10:54;68398.42;;;7.77;100.00
22930;BME280;11630;42.660;23.292;2024-01-25T03:13:24;68445.39;;;8.24;100.00
22930;BME280;11630;42.660;23.292;2024-01-25T03:15:55;68471.19;;;8.49;100.00
22930;BME280;11630;42.660;23.292;2024-01-25T03:18:26;68475.52;;;8.53;100.00
22930;BME280;11630;42.660;23.292;2024-01-25T03:21:00;68479.61;;;8.58;100.00
22930;BME280;11630;42.660;23.292;2024-01-25T03:23:32;68490.98;;;8.61;100.00
22930;BME280;11630;42.660;23.292;2024-01-25T03:26:02;68492.07;;;8.64;100.00
22930;BME280;11630;42.660;23.292;2024-01-25T03:28:36;68492.91;;;8.69;100.00
22930;BME280;11630;42.660;23.292;2024-01-25T03:31:07;68488.56;;;8.65;100.00
22930;BME280;11630;42.660;23.292;2024-01-25T03:33:37;68484.20;;;8.56;100.00
22930;BME280;11630;42.660;23.292;2024-01-25T03:36:08;68479.61;;;8.58;100.00
22930;BME280;11630;42.660;23.292;2024-01-25T03:38:39;68471.45;;;8.50;100.00
22930;BME280;11630;42.660;23.292;2024-01-25T03:41:10;68475.52;;;8.53;100.00
22930;BME280;11630;42.660;23.292;2024-01-25T03:43:40;68483.95;;;8.59;100.00
22930;BME280;11630;42.660;23.292;2024-01-25T03:46:12;68462.51;;;8.43;100.00
22930;BME280;11630;42.660;23.292;2024-01-25T03:48:43;68465.77;;;8.44;100.00
22930;BME280;11630;42.660;23.292;2024-01-25T03:51:15;68455.44;;;8.37;100.00
22930;BME280;11630;42.660;23.292;2024-01-25T03:53:44;68459.22;;;8.31;100.00
22930;BME280;11630;42.660;23.292;2024-01-25T03:56:15;68459.50;;;8.37;100.00
22930;BME280;11630;42.660;23.292;2024-01-25T03:58:50;68462.78;;;8.45;100.00
22930;BME280;11630;42.660;23.292;2024-01-25T04:01:21;68490.71;;;8.62;100.00
22930;BME280;11630;42.660;23.292;2024-01-25T04:03:50;68493.98;;;8.65;98.68
22930;BME280;11630;42.660;23.292;2024-01-25T04:06:21;68487.21;;;8.62;97.85
22930;BME280;11630;42.660;23.292;2024-01-25T04:08:52;68507.83;;;8.79;98.39
22930;BME280;11630;42.660;23.292;2024-01-25T04:11:24;68509.75;;;8.84;97.19
22930;BME280;11630;42.660;23.292;2024-01-25T04:13:54;68485.83;;;8.60;98.45
22930;BME280;11630;42.660;23.292;2024-01-25T04:16:26;68503.77;;;8.79;98.50
22930;BME280;11630;42.660;23.292;2024-01-25T04:18:56;68518.68;;;8.89;98.31
22930;BME280;11630;42.660;23.292;2024-01-25T04:21:27;68520.85;;;8.88;97.78
22930;BME280;11630;42.660;23.292;2024-01-25T04:23:58;68513.81;;;8.84;98.37
22930;BME280;11630;42.660;23.292;2024-01-25T04:26:29;68506.75;;;8.80;99.28
22930;BME280;11630;42.660;23.292;2024-01-25T04:29:00;68508.92;;;8.80;94.95
22930;BME280;11630;42.660;23.292;2024-01-25T04:31:30;68512.99;;;8.85;94.19
22930;BME280;11630;42.660;23.292;2024-01-25T04:34:01;68508.66;;;8.81;94.49
22930;BME280;11630;42.660;23.292;2024-01-25T04:36:31;68500.77;;;8.75;93.41
22930;BME280;11630;42.660;23.292;2024-01-25T04:39:03;68495.61;;;8.69;93.34
22930;BME280;11630;42.660;23.292;2024-01-25T04:41:34;68487.75;;;8.65;92.76
22930;BME280;11630;42.660;23.292;2024-01-25T04:44:05;68483.95;;;8.62;92.11
22930;BME280;11630;42.660;23.292;2024-01-25T04:46:35;68478.49;;;8.52;91.75
22930;BME280;11630;42.660;23.292;2024-01-25T04:49:07;68475.52;;;8.48;92.01
22930;BME280;11630;42.660;23.292;2024-01-25T04:51:37;68483.38;;;8.56;90.82
22930;BME280;11630;42.660;23.292;2024-01-25T04:54:07;68469.02;;;8.47;90.73
22930;BME280;11630;42.660;23.292;2024-01-25T04:56:37;68470.64;;;8.48;90.61
22930;BME280;11630;42.660;23.292;2024-01-25T04:59:07;68473.37;;;8.51;89.09
22930;BME280;11630;42.660;23.292;2024-01-25T05:01:37;68484.48;;;8.60;87.43
22930;BME280;11630;42.660;23.292;2024-01-25T05:04:09;68471.72;;;8.47;88.53
22930;BME280;11630;42.660;23.292;2024-01-25T05:06:40;68481.76;;;8.55;86.37
22930;BME280;11630;42.660;23.292;2024-01-25T05:09:11;68486.92;;;8.63;84.43
22930;BME280;11630;42.660;23.292;2024-01-25T05:11:42;68480.41;;;8.57;84.27
22930;BME280;11630;42.660;23.292;2024-01-25T05:14:13;68479.32;;;8.54;83.98
22930;BME280;11630;42.660;23.292;2024-01-25T05:16:44;68482.59;;;8.57;83.21
22930;BME280;11630;42.660;23.292;2024-01-25T05:19:14;68475.25;;;8.51;82.76
22930;BME280;11630;42.660;23.292;2024-01-25T05:21:45;68467.66;;;8.47;82.75
22930;BME280;11630;42.660;23.292;2024-01-25T05:24:15;68467.92;;;8.46;82.41
22930;BME280;11630;42.660;23.292;2024-01-25T05:26:45;68460.59;;;8.38;83.46
22930;BME280;11630;42.660;23.292;2024-01-25T05:29:16;68464.39;;;8.41;82.76
22930;BME280;11630;42.660;23.292;2024-01-25T05:31:47;68456.53;;;8.36;82.93
22930;BME280;11630;42.660;23.292;2024-01-25T05:34:18;68452.73;;;8.32;83.38
22930;BME280;11630;42.660;23.292;2024-01-25T05:36:49;68447.30;;;8.27;83.65
22930;BME280;11630;42.660;23.292;2024-01-25T05:39:21;68446.74;;;8.24;83.04
22930;BME280;11630;42.660;23.292;2024-01-25T05:41:51;68438.36;;;8.23;82.98
22930;BME280;11630;42.660;23.292;2024-01-25T05:44:22;68448.91;;;8.24;82.95
22930;BME280;11630;42.660;23.292;2024-01-25T05:46:53;68450.27;;;8.26;82.10
22930;BME280;11630;42.660;23.292;2024-01-25T05:49:23;68446.48;;;8.25;82.81
22930;BME280;11630;42.660;23.292;2024-01-25T05:51:54;68449.19;;;8.25;83.03
22930;BME280;11630;42.660;23.292;2024-01-25T05:54:26;68448.92;;;8.26;83.39
22930;BME280;11630;42.660;23.292;2024-01-25T05:56:57;68438.61;;;8.17;83.77
22930;BME280;11630;42.660;23.292;2024-01-25T05:59:27;68430.18;;;8.13;84.88
22930;BME280;11630;42.660;23.292;2024-01-25T06:01:58;68434.78;;;8.11;84.88
22930;BME280;11630;42.660;23.292;2024-01-25T06:04:28;68429.38;;;8.11;85.17
22930;BME280;11630;42.660;23.292;2024-01-25T06:07:00;68429.09;;;8.09;85.13
22930;BME280;11630;42.660;23.292;2024-01-25T06:09:30;68430.44;;;8.09;85.90
22930;BME280;11630;42.660;23.292;2024-01-25T06:12:01;68413.36;;;7.97;86.14
22930;BME280;11630;42.660;23.292;2024-01-25T06:14:32;68425.58;;;8.07;86.00
22930;BME280;11630;42.660;23.292;2024-01-25T06:17:02;68413.90;;;7.98;86.18
22930;BME280;11630;42.660;23.292;2024-01-25T06:19:35;68419.59;;;7.99;86.84
22930;BME280;11630;42.660;23.292;2024-01-25T06:22:07;68416.34;;;7.99;86.80
22930;BME280;11630;42.660;23.292;2024-01-25T06:24:38;68412.28;;;7.99;87.70
22930;BME280;11630;42.660;23.292;2024-01-25T06:27:11;68418.20;;;7.89;89.05
22930;BME280;11630;42.660;23.292;2024-01-25T06:29:40;68422.58;;;8.03;88.41
22930;BME280;11630;42.660;23.292;2024-01-25T06:32:11;68404.95;;;7.88;88.39
22930;BME280;11630;42.660;23.292;2024-01-25T06:34:41;68410.65;;;7.92;88.01
22930;BME280;11630;42.660;23.292;2024-01-25T06:37:12;68403.06;;;7.90;88.82
22930;BME280;11630;42.660;23.292;2024-01-25T06:39:47;68399.53;;;7.86;89.00
22930;BME280;11630;42.660;23.292;2024-01-25T06:42:14;68421.22;;;8.01;88.34
22930;BME280;11630;42.660;23.292;2024-01-25T06:44:45;68411.19;;;7.95;89.38
22930;BME280;11630;42.660;23.292;2024-01-25T06:47:18;68400.89;;;7.88;90.04
22930;BME280;11630;42.660;23.292;2024-01-25T06:49:49;68402.77;;;7.86;88.91
22930;BME280;11630;42.660;23.292;2024-01-25T06:52:19;68404.42;;;7.90;88.58
22930;BME280;11630;42.660;23.292;2024-01-25T06:54:49;68418.77;;;7.97;88.41
22930;BME280;11630;42.660;23.292;2024-01-25T06:57:23;68419.31;;;8.00;89.33
22930;BME280;11630;42.660;23.292;2024-01-25T06:59:54;68398.46;;;7.90;89.17
22930;BME280;11630;42.660;23.292;2024-01-25T07:02:24;68418.77;;;7.97;89.45
22930;BME280;11630;42.660;23.292;2024-01-25T07:04:55;68408.75;;;7.94;88.61
22930;BME280;11630;42.660;23.292;2024-01-25T07:07:26;68418.51;;;7.98;88.77
22930;BME280;11630;42.660;23.292;2024-01-25T07:09:56;68407.38;;;7.89;88.81
22930;BME280;11630;42.660;23.292;2024-01-25T07:12:27;68407.66;;;7.91;88.93
22930;BME280;11630;42.660;23.292;2024-01-25T07:14:57;68409.30;;;7.92;88.67
22930;BME280;11630;42.660;23.292;2024-01-25T07:17:28;68402.77;;;7.86;88.97
22930;BME280;11630;42.660;23.292;2024-01-25T07:19:59;68393.29;;;7.79;88.12
22930;BME280;11630;42.660;23.292;2024-01-25T07:22:29;68410.11;;;7.97;87.91
22930;BME280;11630;42.660;23.292;2024-01-25T07:25:01;68409.83;;;7.93;87.40
22930;BME280;11630;42.660;23.292;2024-01-25T07:27:31;68405.77;;;7.90;86.97
22930;BME280;11630;42.660;23.292;2024-01-25T07:30:01;68401.69;;;7.85;86.88
22930;BME280;11630;42.660;23.292;2024-01-25T07:32:31;68400.33;;;7.85;86.94
22930;BME280;11630;42.660;23.292;2024-01-25T07:35:02;68398.44;;;7.82;86.94
22930;BME280;11630;42.660;23.292;2024-01-25T07:37:33;68403.03;;;7.85;86.86
22930;BME280;11630;42.660;23.292;2024-01-25T07:40:03;68407.38;;;7.87;86.26
22930;BME280;11630;42.660;23.292;2024-01-25T07:42:34;68391.38;;;7.76;86.58
22930;BME280;11630;42.660;23.292;2024-01-25T07:45:06;68391.64;;;7.75;86.32
22930;BME280;11630;42.660;23.292;2024-01-25T07:47:37;68400.05;;;7.81;87.11
22930;BME280;11630;42.660;23.292;2024-01-25T07:50:08;68401.41;;;7.84;86.44
22930;BME280;11630;42.660;23.292;2024-01-25T07:52:39;68397.63;;;7.83;86.14
22930;BME280;11630;42.660;23.292;2024-01-25T07:55:09;68406.30;;;7.88;85.66
22930;BME280;11630;42.660;23.292;2024-01-25T07:57:40;68398.17;;;7.83;85.32
22930;BME280;11630;42.660;23.292;2024-01-25T08:00:12;68417.95;;;7.98;84.09
22930;BME280;11630;42.660;23.292;2024-01-25T08:06:05;68431.53;;;8.10;83.44
22930;BME280;11630;42.660;23.292;2024-01-25T08:08:35;68428.55;;;8.06;82.50
22930;BME280;11630;42.660;23.292;2024-01-25T08:11:05;68433.97;;;8.11;83.53
22930;BME280;11630;42.660;23.292;2024-01-25T08:13:36;68421.22;;;8.03;83.20
22930;BME280;11630;42.660;23.292;2024-01-25T08:16:10;68427.46;;;8.08;82.88
22930;BME280;11630;42.660;23.292;2024-01-25T08:18:41;68418.80;;;8.05;82.05
22930;BME280;11630;42.660;23.292;2024-01-25T08:21:12;68424.46;;;8.04;81.74
22930;BME280;11630;42.660;23.292;2024-01-25T08:23:43;68427.47;;;8.10;81.86
22930;BME280;11630;42.660;23.292;2024-01-25T08:26:13;68427.99;;;8.06;80.86
22930;BME280;11630;42.660;23.292;2024-01-25T08:28:45;68426.38;;;8.07;80.10
22930;BME280;11630;42.660;23.292;2024-01-25T08:31:16;68434.23;;;8.13;80.06
22930;BME280;11630;42.660;23.292;2024-01-25T08:33:47;68426.94;;;8.12;79.84
22930;BME280;11630;42.660;23.292;2024-01-25T08:36:20;68435.64;;;8.18;80.33
22930;BME280;11630;42.660;23.292;2024-01-25T08:38:51;68437.80;;;8.17;79.82
22930;BME280;11630;42.660;23.292;2024-01-25T08:41:21;68447.52;;;8.19;79.21
22930;BME280;11630;42.660;23.292;2024-01-25T08:43:52;68448.36;;;8.23;79.13
22930;BME280;11630;42.660;23.292;2024-01-25T08:46:22;68456.26;;;8.34;79.23
22930;BME280;11630;42.660;23.292;2024-01-25T08:48:53;68440.51;;;8.22;79.27
22930;BME280;11630;42.660;23.292;2024-01-25T08:54:28;68442.41;;;8.23;79.62
22930;BME280;11630;42.660;23.292;2024-01-25T08:56:59;68452.19;;;8.29;79.12
22930;BME280;11630;42.660;23.292;2024-01-25T08:59:31;68450.27;;;8.26;78.94
22930;BME280;11630;42.660;23.292;2024-01-25T09:02:03;68458.70;;;8.35;78.74
22930;BME280;11630;42.660;23.292;2024-01-25T09:04:34;68482.32;;;8.58;79.04
22930;BME280;11630;42.660;23.292;2024-01-25T09:07:05;68488.27;;;8.61;77.51
22930;BME280;11630;42.660;23.292;2024-01-25T09:09:35;68499.41;;;8.72;78.28
22930;BME280;11630;42.660;23.292;2024-01-25T09:12:07;68492.34;;;8.63;78.65
22930;BME280;11630;42.660;23.292;2024-01-25T09:14:37;68477.97;;;8.54;78.11
22930;BME280;11630;42.660;23.292;2024-01-25T09:17:08;68473.38;;;8.53;78.31
22930;BME280;11630;42.660;23.292;2024-01-25T09:19:38;68466.83;;;8.42;78.15
22930;BME280;11630;42.660;23.292;2024-01-25T09:22:08;68467.91;;;8.41;79.31
22930;BME280;11630;42.660;23.292;2024-01-25T09:24:39;68463.30;;;8.40;78.79
22930;BME280;11630;42.660;23.292;2024-01-25T09:27:10;68478.49;;;8.52;78.84
22930;BME280;11630;42.660;23.292;2024-01-25T09:29:40;68470.92;;;8.50;79.06
22930;BME280;11630;42.660;23.292;2024-01-25T09:32:10;68469.54;;;8.45;79.37
22930;BME280;11630;42.660;23.292;2024-01-25T09:34:41;68491.28;;;8.70;79.38
22930;BME280;11630;42.660;23.292;2024-01-25T09:37:13;68483.95;;;8.62;79.58
22930;BME280;11630;42.660;23.292;2024-01-25T09:39:44;68492.36;;;8.66;78.72
22930;BME280;11630;42.660;23.292;2024-01-25T09:42:15;68520.03;;;8.86;78.85
22930;BME280;11630;42.660;23.292;2024-01-25T09:44:45;68509.72;;;8.82;78.81
22930;BME280;11630;42.660;23.292;2024-01-25T09:47:16;68523.56;;;8.91;79.23
22930;BME280;11630;42.660;23.292;2024-01-25T09:49:47;68520.58;;;8.87;78.79
22930;BME280;11630;42.660;23.292;2024-01-25T09:52:21;68498.31;;;8.66;79.33
22930;BME280;11630;42.660;23.292;2024-01-25T09:54:53;68491.82;;;8.70;78.79
22930;BME280;11630;42.660;23.292;2024-01-25T09:57:28;68488.02;;;8.64;79.34
22930;BME280;11630;42.660;23.292;2024-01-25T09:59:59;68490.19;;;8.64;79.23
22930;BME280;11630;42.660;23.292;2024-01-25T10:02:30;68480.68;;;8.59;78.69
22930;BME280;11630;42.660;23.292;2024-01-25T10:05:00;68496.17;;;8.72;79.03
22930;BME280;11630;42.660;23.292;2024-01-25T10:07:38;68489.11;;;8.68;78.79
22930;BME280;11630;42.660;23.292;2024-01-25T10:10:10;68476.08;;;8.53;79.13
22930;BME280;11630;42.660;23.292;2024-01-25T10:12:43;68480.97;;;8.58;78.92
22930;BME280;11630;42.660;23.292;2024-01-25T10:15:14;68482.03;;;8.59;78.76
22930;BME280;11630;42.660;23.292;2024-01-25T10:17:45;68487.74;;;8.63;79.04
22930;BME280;11630;42.660;23.292;2024-01-25T10:20:15;68491.02;;;8.68;79.85
22930;BME280;11630;42.660;23.292;2024-01-25T10:22:46;68498.89;;;8.77;79.73
22930;BME280;11630;42.660;23.292;2024-01-25T10:25:17;68511.89;;;8.79;80.94
22930;BME280;11630;42.660;23.292;2024-01-25T10:27:48;68503.21;;;8.76;79.85
22930;BME280;11630;42.660;23.292;2024-01-25T10:30:20;68516.80;;;8.91;79.71
22930;BME280;11630;42.660;23.292;2024-01-25T10:32:51;68540.42;;;9.11;80.09
22930;BME280;11630;42.660;23.292;2024-01-25T10:35:22;68528.75;;;9.02;80.05
22930;BME280;11630;42.660;23.292;2024-01-25T10:37:54;68546.95;;;9.19;80.10
22930;BME280;11630;42.660;23.292;2024-01-25T10:40:23;68549.92;;;9.18;80.29
22930;BME280;11630;42.660;23.292;2024-01-25T10:42:54;68560.00;;;9.31;79.70
22930;BME280;11630;42.660;23.292;2024-01-25T10:45:24;68530.11;;;9.02;78.83
22930;BME280;11630;42.660;23.292;2024-01-25T10:47:55;68520.06;;;8.94;79.33
22930;BME280;11630;42.660;23.292;2024-01-25T10:50:26;68534.70;;;9.02;79.07
22930;BME280;11630;42.660;23.292;2024-01-25T10:52:57;68543.67;;;9.12;77.02
22930;BME280;11630;42.660;23.292;2024-01-25T10:55:28;68560.52;;;9.27;76.93
22930;BME280;11630;42.660;23.292;2024-01-25T10:57:59;68570.85;;;9.41;77.40
22930;BME280;11630;42.660;23.292;2024-01-25T11:00:31;68579.81;;;9.48;75.61
22930;BME280;11630;42.660;23.292;2024-01-25T11:03:02;68584.96;;;9.47;73.46
22930;BME280;11630;42.660;23.292;2024-01-25T11:05:33;68573.56;;;9.41;73.40
22930;BME280;11630;42.660;23.292;2024-01-25T11:08:03;68560.00;;;9.34;73.08
22930;BME280;11630;42.660;23.292;2024-01-25T11:10:34;68559.44;;;9.31;74.03
22930;BME280;11630;42.660;23.292;2024-01-25T11:13:13;68579.81;;;9.48;73.09
22930;BME280;11630;42.660;23.292;2024-01-25T11:15:40;68574.92;;;9.44;73.14
22930;BME280;11630;42.660;23.292;2024-01-25T11:18:12;68559.45;;;9.33;72.34
22930;BME280;11630;42.660;23.292;2024-01-25T11:20:46;68559.73;;;9.32;73.72
22930;BME280;11630;42.660;23.292;2024-01-25T11:23:15;68557.25;;;9.24;72.80
22930;BME280;11630;42.660;23.292;2024-01-25T11:25:47;68547.23;;;9.21;72.40
22930;BME280;11630;42.660;23.292;2024-01-25T11:28:18;68559.97;;;9.29;72.81
22930;BME280;11630;42.660;23.292;2024-01-25T11:30:50;68545.02;;;9.12;72.36
22930;BME280;11630;42.660;23.292;2024-01-25T11:33:21;68526.83;;;8.94;73.13
22930;BME280;11630;42.660;23.292;2024-01-25T11:35:55;68516.52;;;8.87;73.31
22930;BME280;11630;42.660;23.292;2024-01-25T11:38:26;68496.70;;;8.70;73.38
22930;BME280;11630;42.660;23.292;2024-01-25T11:40:59;68494.52;;;8.68;73.88
22930;BME280;11630;42.660;23.292;2024-01-25T11:43:30;68498.32;;;8.71;73.92
22930;BME280;11630;42.660;23.292;2024-01-25T11:46:01;68492.11;;;8.69;74.70
22930;BME280;11630;42.660;23.292;2024-01-25T11:48:33;68482.33;;;8.63;73.94
22930;BME280;11630;42.660;23.292;2024-01-25T11:51:03;68501.58;;;8.69;73.89
22930;BME280;11630;42.660;23.292;2024-01-25T11:53:33;68505.39;;;8.78;73.51
22930;BME280;11630;42.660;23.292;2024-01-25T11:56:05;68500.51;;;8.78;73.67
22930;BME280;11630;42.660;23.292;2024-01-25T11:58:36;68513.78;;;8.82;73.65
22930;BME280;11630;42.660;23.292;2024-01-25T12:01:07;68502.13;;;8.75;72.76
22930;BME280;11630;42.660;23.292;2024-01-25T12:03:38;68504.03;;;8.78;73.15
22930;BME280;11630;42.660;23.292;2024-01-25T12:06:09;68511.38;;;8.86;73.28
22930;BME280;11630;42.660;23.292;2024-01-25T12:08:40;68499.97;;;8.78;72.76
22930;BME280;11630;42.660;23.292;2024-01-25T12:11:12;68500.23;;;8.77;73.03
22930;BME280;11630;42.660;23.292;2024-01-25T12:13:44;68514.08;;;8.86;73.11
22930;BME280;11630;42.660;23.292;2024-01-25T12:16:14;68505.66;;;8.79;72.37
22930;BME280;11630;42.660;23.292;2024-01-25T12:18:44;68490.46;;;8.68;72.67
22930;BME280;11630;42.660;23.292;2024-01-25T12:21:14;68501.58;;;8.69;72.88
22930;BME280;11630;42.660;23.292;2024-01-25T12:23:44;68498.32;;;8.71;73.40
22930;BME280;11630;42.660;23.292;2024-01-25T12:26:15;68502.95;;;8.77;73.28
22930;BME280;11630;42.660;23.292;2024-01-25T12:28:47;68508.92;;;8.80;72.87
22930;BME280;11630;42.660;23.292;2024-01-25T12:31:17;68517.04;;;8.80;72.56
22930;BME280;11630;42.660;23.292;2024-01-25T12:33:48;68507.58;;;8.85;71.45
22930;BME280;11630;42.660;23.292;2024-01-25T12:36:19;68533.09;;;9.03;72.04
22930;BME280;11630;42.660;23.292;2024-01-25T12:38:49;68540.43;;;9.14;71.43
22930;BME280;11630;42.660;23.292;2024-01-25T12:41:20;68551.30;;;9.21;71.11
22930;BME280;11630;42.660;23.292;2024-01-25T12:43:51;68562.93;;;9.20;71.23
22930;BME280;11630;42.660;23.292;2024-01-25T12:46:22;68563.25;;;9.34;70.68
22930;BME280;11630;42.660;23.292;2024-01-25T12:48:53;68576.52;;;9.35;70.21
22930;BME280;11630;42.660;23.292;2024-01-25T12:51:23;68582.78;;;9.42;69.71
22930;BME280;11630;42.660;23.292;2024-01-25T12:53:55;68582.52;;;9.46;68.95
22930;BME280;11630;42.660;23.292;2024-01-25T12:56:26;68583.35;;;9.53;68.56
22930;BME280;11630;42.660;23.292;2024-01-25T12:58:56;68579.81;;;9.48;68.52
22930;BME280;11630;42.660;23.292;2024-01-25T13:01:26;68587.70;;;9.54;68.00
22930;BME280;11630;42.660;23.292;2024-01-25T13:03:57;68584.70;;;9.53;68.08
22930;BME280;11630;42.660;23.292;2024-01-25T13:06:28;68589.87;;;9.59;68.06
22930;BME280;11630;42.660;23.292;2024-01-25T13:08:57;68592.01;;;9.48;67.25
22930;BME280;11630;42.660;23.292;2024-01-25T13:11:29;68597.47;;;9.63;67.06
22930;BME280;11630;42.660;23.292;2024-01-25T13:14:00;68589.33;;;9.53;66.75
22930;BME280;11630;42.660;23.292;2024-01-25T13:16:31;68579.28;;;9.50;66.91
22930;BME280;11630;42.660;23.292;2024-01-25T13:19:02;68573.56;;;9.41;67.36
22930;BME280;11630;42.660;23.292;2024-01-25T13:21:33;68570.02;;;9.37;67.83
22930;BME280;11630;42.660;23.292;2024-01-25T13:24:04;68571.94;;;9.37;67.30